Time;durP1;ratioP1;P1;durP2;ratioP2;P2;SDS_P1;SDS_P2;PMS_P1;PMS_P2;Temp;Humidity;BMP_temperature;BMP_pressure;BME280_temperature;BME280_humidity;BME280_pressure;Samples;Min_cycle;Max_cycle;Signal;HPM_P1;HPM_P2
2022/04/29 00:01:57;;;;;;;2.65;1.10;;;19.80;41.50;18.90;102668.00;;;;5034587;28;20052;-69
2022/04/29 00:04:43;;;;;;;3.78;1.45;;;19.80;41.50;18.90;102665.00;;;;5032352;28;20082;-70
2022/04/29 00:07:29;;;;;;;4.57;1.20;;;19.80;41.50;18.90;102672.00;;;;5029906;28;20398;-70
2022/04/29 00:10:15;;;;;;;1.88;1.02;;;19.80;41.50;18.90;102669.00;;;;5012197;28;20055;-69
2022/04/29 00:13:03;;;;;;;3.88;1.10;;;19.90;41.60;18.90;102666.00;;;;5024895;28;20478;-70
2022/04/29 00:15:49;;;;;;;;;;;19.90;41.60;18.90;102661.00;;;;5010337;28;20452;-70
2022/04/29 00:18:35;;;;;;;2.75;0.93;;;19.80;41.50;18.90;102657.00;;;;5035775;28;20358;-70
2022/04/29 00:21:22;;;;;;;3.15;1.45;;;19.90;41.50;18.90;102659.00;;;;5034030;28;20037;-69
2022/04/29 00:24:12;;;;;;;3.20;1.02;;;19.80;41.50;18.90;102653.00;;;;5032790;28;20180;-69
2022/04/29 00:26:58;;;;;;;2.65;1.30;;;19.90;41.60;18.90;102656.00;;;;5034573;28;20537;-70
2022/04/29 00:29:44;;;;;;;2.80;1.05;;;19.80;41.50;18.90;102650.00;;;;5034192;28;20049;-70
2022/04/29 00:32:31;;;;;;;4.43;1.23;;;19.80;41.50;18.90;102640.00;;;;5031550;28;20474;-70
2022/04/29 00:35:17;;;;;;;3.70;1.08;;;19.70;41.50;18.90;102648.00;;;;5017836;28;20299;-70
2022/04/29 00:38:03;;;;;;;3.45;1.60;;;19.80;41.50;18.90;102653.00;;;;5027252;28;20048;-70
2022/04/29 00:40:49;;;;;;;3.13;0.90;;;19.80;41.60;18.90;102666.00;;;;5032955;28;20037;-70
2022/04/29 00:43:35;;;;;;;1.55;1.08;;;19.90;42.30;18.90;102663.00;;;;5032660;28;20045;-69
2022/04/29 00:46:21;;;;;;;4.85;1.45;;;19.80;41.50;18.90;102659.00;;;;5040855;28;20037;-70
2022/04/29 00:49:10;;;;;;;4.95;1.33;;;19.80;41.60;18.90;102661.00;;;;5039939;28;20402;-70
2022/04/29 00:51:56;;;;;;;2.80;1.02;;;19.90;41.60;18.90;102653.00;;;;5023237;28;20036;-69
2022/04/29 00:54:45;;;;;;;4.05;1.20;;;19.80;41.60;18.90;102659.00;;;;5037842;28;20119;-70
2022/04/29 00:57:50;;;;;;;2.90;1.00;;;19.70;41.60;18.80;102652.00;;;;5021674;28;20489;-70
2022/04/29 01:00:38;;;;;;;3.42;1.00;;;19.70;41.60;18.80;102655.00;;;;5024935;28;20446;-70
2022/04/29 01:03:24;;;;;;;2.33;1.30;;;19.70;41.60;18.80;102653.00;;;;5008824;28;20041;-69
2022/04/29 01:06:10;;;;;;;4.45;1.67;;;19.80;42.40;18.80;102656.00;;;;5010707;28;20479;-70
2022/04/29 01:08:56;;;;;;;3.38;1.25;;;19.70;41.60;18.80;102656.00;;;;5032864;28;20042;-70
2022/04/29 01:11:42;;;;;;;6.35;1.58;;;19.80;41.60;18.80;102643.00;;;;5006170;28;20414;-70
2022/04/29 01:14:29;;;;;;;2.67;1.08;;;19.70;41.60;18.80;102651.00;;;;5036396;28;20096;-70
2022/04/29 01:17:15;;;;;;;3.45;1.25;;;19.70;41.60;18.80;102644.00;;;;5034026;28;20049;-70
2022/04/29 01:20:05;;;;;;;4.00;1.23;;;19.70;41.60;18.80;102639.00;;;;5035853;28;20296;-70
2022/04/29 01:22:51;;;;;;;2.72;1.35;;;19.70;41.60;18.80;102630.00;;;;5014441;28;20383;-70
2022/04/29 01:25:38;;;;;;;3.45;1.10;;;19.70;41.60;18.80;102639.00;;;;5031518;28;20045;-70
2022/04/29 01:28:24;;;;;;;2.10;1.13;;;19.70;41.70;18.80;102638.00;;;;5037899;28;20161;-70
2022/04/29 01:31:12;;;;;;;3.55;1.10;;;19.70;41.60;18.80;102649.00;;;;5007465;28;20080;-70
2022/04/29 01:33:58;;;;;;;2.65;1.00;;;19.70;41.60;18.80;102640.00;;;;5019909;28;20033;-70
2022/04/29 01:36:44;;;;;;;2.42;1.08;;;19.70;41.70;18.80;102638.00;;;;4996863;28;20402;-70
2022/04/29 01:39:31;;;;;;;3.72;1.27;;;19.70;41.70;18.80;102638.00;;;;5035525;28;20041;-70
2022/04/29 01:42:17;;;;;;;3.55;1.63;;;19.70;41.70;18.80;102632.00;;;;5038664;28;20041;-71
2022/04/29 01:45:03;;;;;;;2.70;1.10;;;19.70;41.70;18.80;102623.00;;;;5020666;28;20033;-70
2022/04/29 01:47:50;;;;;;;3.95;1.45;;;19.70;41.70;18.80;102620.00;;;;5026635;28;20462;-70
2022/04/29 01:50:36;;;;;;;5.57;1.85;;;19.70;41.80;18.80;102622.00;;;;5031117;28;20504;-70
2022/04/29 01:53:22;;;;;;;3.42;1.10;;;19.70;41.80;18.80;102606.00;;;;5034098;28;20503;-69
2022/04/29 01:56:08;;;;;;;5.38;1.10;;;19.70;41.70;18.80;102605.00;;;;5022514;28;20511;-70
2022/04/29 01:58:56;;;;;;;3.20;1.38;;;19.70;41.80;18.80;102606.00;;;;5024030;28;20037;-70
2022/04/29 02:01:42;;;;;;;4.32;1.23;;;19.60;41.70;18.70;102600.00;;;;5031039;28;20128;-70
2022/04/29 02:04:28;;;;;;;5.45;2.28;;;19.70;41.70;18.80;102601.00;;;;5034813;28;20043;-70
2022/04/29 02:07:14;;;;;;;3.42;1.30;;;19.70;41.80;18.70;102597.00;;;;5019475;28;20103;-70
2022/04/29 02:10:01;;;;;;;3.63;1.25;;;19.70;41.80;18.80;102595.00;;;;5023665;28;20049;-70
2022/04/29 02:12:47;;;;;;;3.30;1.35;;;19.70;41.80;18.70;102591.00;;;;5033642;28;20587;-70
2022/04/29 02:15:33;;;;;;;5.25;1.40;;;19.60;41.80;18.70;102587.00;;;;5019939;28;20052;-70
2022/04/29 02:18:19;;;;;;;2.25;1.00;;;19.60;41.70;18.70;102583.00;;;;5036242;28;20044;-70
2022/04/29 02:21:05;;;;;;;6.40;1.42;;;19.60;41.80;18.70;102581.00;;;;5032607;28;20045;-70
2022/04/29 02:23:51;;;;;;;2.67;1.30;;;19.60;41.80;18.70;102576.00;;;;5040951;28;20041;-70
2022/04/29 02:26:37;;;;;;;3.90;1.48;;;19.60;41.80;18.70;102580.00;;;;5033905;28;20038;-69
2022/04/29 02:29:23;;;;;;;3.20;1.50;;;19.60;41.80;18.70;102586.00;;;;5041567;28;20041;-70
2022/04/29 02:32:09;;;;;;;2.05;1.13;;;19.60;41.80;18.70;102574.00;;;;5033133;28;20045;-70
2022/04/29 02:34:56;;;;;;;2.47;1.27;;;19.60;41.80;18.70;102572.00;;;;5032592;28;20033;-70
2022/04/29 02:37:42;;;;;;;4.00;1.33;;;19.60;41.80;18.70;102565.00;;;;5039767;28;20486;-70
2022/04/29 02:40:28;;;;;;;2.53;1.20;;;19.70;41.90;18.70;102567.00;;;;5034870;28;20044;-70
2022/04/29 02:43:14;;;;;;;2.70;1.40;;;19.60;41.90;18.70;102564.00;;;;5040317;28;20045;-70
2022/04/29 02:46:00;;;;;;;3.15;1.15;;;19.50;41.80;18.70;102562.00;;;;5032740;28;20045;-69
2022/04/29 02:48:48;;;;;;;4.03;1.25;;;19.60;41.80;18.70;102564.00;;;;5030311;28;20045;-69
2022/04/29 02:51:34;;;;;;;6.07;1.38;;;19.50;41.80;18.70;102563.00;;;;5030373;28;20041;-70
2022/04/29 02:54:20;;;;;;;3.95;1.20;;;19.60;41.80;18.70;102567.00;;;;5038412;28;20041;-70
2022/04/29 02:57:06;;;;;;;2.55;1.00;;;19.60;41.80;18.70;102576.00;;;;5042917;28;20060;-70
2022/04/29 02:59:52;;;;;;;2.65;1.15;;;19.60;41.80;18.70;102563.00;;;;5022677;28;20048;-70
2022/04/29 03:02:39;;;;;;;2.95;1.25;;;19.60;41.80;18.70;102559.00;;;;5040596;28;20731;-70
2022/04/29 03:05:26;;;;;;;3.35;1.17;;;19.50;41.80;18.60;102552.00;;;;5007004;28;20648;-70
2022/04/29 03:08:12;;;;;;;5.60;1.45;;;19.60;41.90;18.60;102553.00;;;;5032550;28;20596;-69
2022/04/29 03:10:58;;;;;;;4.18;1.27;;;19.50;41.80;18.60;102560.00;;;;5032974;28;20179;-70
2022/04/29 03:13:44;;;;;;;4.93;1.33;;;19.50;41.80;18.60;102560.00;;;;5028044;28;20117;-70
2022/04/29 03:16:30;;;;;;;3.70;1.33;;;19.50;41.90;18.60;102559.00;;;;5032831;28;20377;-70
2022/04/29 03:19:17;;;;;;;3.70;1.30;;;19.60;41.90;18.60;102554.00;;;;5018786;28;20143;-70
2022/04/29 03:22:03;;;;;;;3.80;1.30;;;19.50;41.90;18.60;102552.00;;;;5028809;28;20562;-70
2022/04/29 03:24:49;;;;;;;4.68;1.45;;;19.50;41.90;18.60;102555.00;;;;5040049;28;20131;-69
2022/04/29 03:27:35;;;;;;;3.28;1.40;;;19.50;41.90;18.60;102553.00;;;;5030887;28;20402;-70
2022/04/29 03:30:21;;;;;;;4.63;1.20;;;19.50;41.90;18.60;102553.00;;;;5035703;28;20049;-70
2022/04/29 03:33:08;;;;;;;3.97;1.80;;;19.50;41.90;18.60;102554.00;;;;5029106;28;20407;-70
2022/04/29 03:35:54;;;;;;;4.38;1.50;;;19.40;41.80;18.60;102553.00;;;;5027769;28;20073;-70
2022/04/29 03:38:40;;;;;;;3.67;1.73;;;19.50;41.90;18.60;102546.00;;;;5039866;28;20438;-70
2022/04/29 03:41:26;;;;;;;3.13;0.95;;;19.50;41.90;18.60;102548.00;;;;5032167;28;20052;-70
2022/04/29 03:44:12;;;;;;;3.40;1.35;;;19.50;41.90;18.60;102538.00;;;;5037804;28;20045;-69
2022/04/29 03:46:58;;;;;;;4.68;1.83;;;19.50;42.00;18.60;102542.00;;;;5017896;28;20044;-70
2022/04/29 03:49:44;;;;;;;3.80;1.40;;;19.50;41.90;18.60;102552.00;;;;5037719;28;20053;-70
2022/04/29 03:52:30;;;;;;;2.50;1.13;;;19.50;41.90;18.60;102544.00;;;;5033817;28;20101;-70
2022/04/29 03:55:38;;;;;;;3.50;1.50;;;19.50;41.90;18.60;102549.00;;;;5013429;28;20204;-69
2022/04/29 03:58:24;;;;;;;4.22;1.50;;;19.40;41.90;18.60;102542.00;;;;5028816;28;20127;-70
2022/04/29 04:01:11;;;;;;;5.03;1.42;;;19.50;42.00;18.60;102550.00;;;;5037208;28;20123;-69
2022/04/29 04:03:57;;;;;;;3.35;1.45;;;19.50;42.00;18.60;102551.00;;;;5036409;28;20069;-70
2022/04/29 04:06:49;;;;;;;3.85;1.35;;;19.50;41.90;18.60;102548.00;;;;5028569;28;20095;-69
2022/04/29 04:09:36;;;;;;;3.33;1.77;;;19.50;42.00;18.60;102544.00;;;;5037401;28;20049;-69
2022/04/29 04:12:22;;;;;;;5.20;1.45;;;19.40;41.90;18.50;102547.00;;;;5035792;28;20032;-70
2022/04/29 04:15:09;;;;;;;4.63;1.80;;;19.40;41.90;18.50;102531.00;;;;5033821;28;20056;-69
2022/04/29 04:17:55;;;;;;;3.05;1.65;;;19.40;41.90;18.50;102532.00;;;;5034407;28;20041;-69
2022/04/29 04:20:41;;;;;;;5.80;1.67;;;19.40;42.00;18.50;102534.00;;;;5033440;28;20048;-70
2022/04/29 04:23:27;;;;;;;2.72;1.20;;;19.40;42.00;18.50;102536.00;;;;5038379;28;20040;-69
2022/04/29 04:26:14;;;;;;;5.73;1.80;;;19.40;42.00;18.50;102535.00;;;;5033104;28;20056;-70
2022/04/29 04:29:00;;;;;;;4.38;1.40;;;19.40;42.00;18.50;102535.00;;;;5034887;28;20506;-69
2022/04/29 04:31:47;;;;;;;5.05;1.50;;;19.40;42.00;18.50;102538.00;;;;5015140;28;20049;-70
2022/04/29 04:34:54;;;;;;;2.92;1.50;;;19.40;42.00;18.50;102546.00;;;;5036593;28;20040;-69
2022/04/29 04:37:40;;;;;;;3.70;1.63;;;19.40;42.00;18.50;102536.00;;;;5040392;28;20394;-69
2022/04/29 04:40:26;;;;;;;4.35;1.33;;;19.40;42.10;18.50;102550.00;;;;5036476;28;20033;-70
2022/04/29 04:43:12;;;;;;;2.90;1.30;;;19.40;42.10;18.50;102549.00;;;;5033056;28;20410;-69
2022/04/29 04:45:58;;;;;;;4.50;1.58;;;19.40;42.10;18.50;102552.00;;;;5030647;28;20376;-70
2022/04/29 04:48:44;;;;;;;4.20;1.50;;;19.30;42.00;18.50;102566.00;;;;5032713;28;20042;-70
2022/04/29 04:51:30;;;;;;;3.63;1.67;;;19.30;42.10;18.50;102562.00;;;;5032502;28;20045;-70
2022/04/29 04:54:16;;;;;;;2.72;1.23;;;19.40;42.10;18.50;102567.00;;;;5023471;28;20372;-70
2022/04/29 04:57:03;;;;;;;4.55;1.50;;;19.30;42.10;18.40;102559.00;;;;5029198;28;20041;-70
2022/04/29 04:59:49;;;;;;;6.18;1.67;;;19.30;42.10;18.50;102554.00;;;;5027309;28;20104;-70
2022/04/29 05:02:40;;;;;;;4.18;1.48;;;19.30;42.10;18.40;102550.00;;;;5017689;28;20041;-70
2022/04/29 05:05:26;;;;;;;4.35;1.50;;;19.30;42.10;18.40;102566.00;;;;5011712;28;20087;-69
2022/04/29 05:08:12;;;;;;;2.17;1.48;;;19.30;42.10;18.40;102567.00;;;;5033911;28;20048;-70
2022/04/29 05:10:58;;;;;;;5.65;1.65;;;19.30;42.10;18.40;102567.00;;;;5033359;28;20042;-69
2022/04/29 05:13:44;;;;;;;4.40;1.70;;;19.30;42.10;18.40;102557.00;;;;5032927;28;20477;-69
2022/04/29 05:16:30;;;;;;;3.42;1.52;;;19.30;42.10;18.40;102551.00;;;;5031726;28;20044;-69
2022/04/29 05:19:16;;;;;;;2.78;1.42;;;19.30;42.20;18.40;102551.00;;;;5034808;28;20072;-70
2022/04/29 05:22:02;;;;;;;3.10;1.08;;;19.30;42.10;18.40;102555.00;;;;5034545;28;20045;-69
2022/04/29 05:24:48;;;;;;;4.05;1.50;;;19.30;42.10;18.40;102556.00;;;;5032660;28;20048;-69
2022/04/29 05:27:35;;;;;;;4.28;1.55;;;19.30;42.10;18.40;102559.00;;;;5020782;28;20041;-69
2022/04/29 05:30:21;;;;;;;4.50;1.55;;;19.30;42.00;18.40;102568.00;;;;5021056;28;20053;-69
2022/04/29 05:33:07;;;;;;;7.97;2.13;;;19.30;42.10;18.40;102563.00;;;;5036482;28;20041;-69
2022/04/29 05:36:00;;;;;;;11.15;2.50;;;19.20;42.10;18.40;102563.00;;;;5033225;28;20049;-70
2022/04/29 05:44:54;;;;;;;8.05;2.40;;;19.20;42.30;18.30;102551.00;;;;5032419;28;20350;-69
2022/04/29 05:47:40;;;;;;;5.18;2.30;;;19.20;42.30;18.30;102557.00;;;;5020268;28;20045;-69
2022/04/29 05:50:26;;;;;;;5.35;3.05;;;19.30;42.40;18.30;102564.00;;;;5014084;28;20064;-69
2022/04/29 05:53:14;;;;;;;8.57;3.30;;;19.10;42.30;18.30;102570.00;;;;5031569;28;20034;-69
2022/04/29 05:56:00;;;;;;;6.67;2.80;;;19.20;42.40;18.30;102582.00;;;;5034716;28;20040;-69
2022/04/29 05:58:46;;;;;;;9.82;2.95;;;19.20;42.40;18.30;102566.00;;;;5031286;28;20272;-69
2022/04/29 06:01:32;;;;;;;6.95;3.08;;;19.10;42.40;18.30;102552.00;;;;5032519;28;20041;-69
2022/04/29 06:04:18;;;;;;;5.85;2.80;;;19.10;42.40;18.30;102561.00;;;;5037168;28;20049;-69
2022/04/29 06:07:04;;;;;;;7.07;3.10;;;19.10;42.40;18.30;102562.00;;;;5033830;28;20123;-69
2022/04/29 06:09:50;;;;;;;7.55;3.53;;;19.10;42.60;18.30;102559.00;;;;5023038;28;20041;-69
2022/04/29 06:12:43;;;;;;;6.05;3.78;;;19.10;42.60;18.20;102554.00;;;;5031074;28;20181;-69
2022/04/29 06:15:29;;;;;;;7.53;3.17;;;19.10;42.70;18.20;102555.00;;;;5032429;28;20462;-69
2022/04/29 06:18:15;;;;;;;11.95;3.33;;;19.10;42.70;18.20;102545.00;;;;5029880;28;20049;-69
2022/04/29 06:21:02;;;;;;;8.90;3.00;;;19.00;42.70;18.20;102549.00;;;;5033183;28;20053;-69
2022/04/29 06:23:48;;;;;;;7.97;3.25;;;19.10;42.70;18.20;102541.00;;;;5024096;28;20322;-69
2022/04/29 06:26:35;;;;;;;7.65;3.30;;;19.10;42.80;18.20;102541.00;;;;5025211;28;20099;-69
2022/04/29 06:29:21;;;;;;;7.68;3.72;;;19.10;42.80;18.20;102546.00;;;;5034503;28;20041;-70
2022/04/29 06:32:07;;;;;;;6.38;3.30;;;19.00;42.80;18.20;102559.00;;;;5042254;28;20044;-70
2022/04/29 06:34:53;;;;;;;7.50;3.70;;;19.10;42.90;18.30;102560.00;;;;5036661;28;20036;-69
2022/04/29 06:37:39;;;;;;;10.32;3.80;;;19.10;42.90;18.20;102555.00;;;;5031787;28;20079;-70
2022/04/29 06:40:27;;;;;;;4.60;2.92;;;19.00;42.80;18.20;102554.00;;;;5034599;28;20064;-69
2022/04/29 06:43:13;;;;;;;6.38;2.83;;;19.10;42.90;18.30;102550.00;;;;5035613;28;20136;-69
2022/04/29 06:45:59;;;;;;;4.85;2.72;;;19.10;43.00;18.20;102552.00;;;;5034601;28;20037;-70
2022/04/29 06:48:45;;;;;;;7.93;3.47;;;19.10;43.00;18.20;102554.00;;;;5033779;28;20053;-70
2022/04/29 06:51:31;;;;;;;5.50;2.95;;;19.10;42.90;18.30;102562.00;;;;5035155;28;20527;-70
2022/04/29 06:54:17;;;;;;;8.55;3.08;;;19.10;43.00;18.20;102551.00;;;;5040989;28;20033;-70
2022/04/29 06:57:04;;;;;;;7.35;2.90;;;19.10;43.00;18.30;102548.00;;;;5037541;28;20092;-69
2022/04/29 06:59:50;;;;;;;7.77;2.73;;;19.10;43.00;18.30;102544.00;;;;5022437;28;20073;-70
2022/04/29 07:02:37;;;;;;;5.63;3.00;;;19.10;43.00;18.30;102552.00;;;;5036557;28;20036;-70
2022/04/29 07:05:23;;;;;;;6.55;2.90;;;19.10;43.20;18.30;102543.00;;;;5022494;28;20474;-70
2022/04/29 07:08:10;;;;;;;6.63;2.42;;;19.20;43.10;18.30;102555.00;;;;5035758;28;20474;-69
2022/04/29 07:10:56;;;;;;;4.60;2.17;;;19.20;43.10;18.30;102565.00;;;;5037349;28;20107;-70
2022/04/29 07:13:43;;;;;;;6.57;2.35;;;19.20;43.20;18.30;102558.00;;;;5040232;28;20048;-70
2022/04/29 07:16:30;;;;;;;4.43;2.50;;;19.20;43.20;18.30;102564.00;;;;5035385;28;20041;-70
2022/04/29 07:19:17;;;;;;;5.00;2.28;;;19.20;43.20;18.30;102574.00;;;;5038684;28;20068;-70
2022/04/29 07:22:06;;;;;;;5.00;2.20;;;19.20;43.10;18.30;102564.00;;;;5035069;28;20120;-70
2022/04/29 07:24:52;;;;;;;6.82;2.58;;;19.20;43.10;18.30;102564.00;;;;5010652;28;20068;-69
2022/04/29 07:27:40;;;;;;;5.85;2.50;;;19.20;43.20;18.30;102559.00;;;;5036392;28;20034;-69
2022/04/29 07:30:26;;;;;;;4.70;2.20;;;19.20;43.20;18.30;102567.00;;;;5012817;28;20053;-70
2022/04/29 07:33:12;;;;;;;4.43;2.25;;;19.20;43.10;18.30;102558.00;;;;5022201;28;20040;-70
2022/04/29 07:42:08;;;;;;;14.32;4.63;;;19.20;43.20;18.30;102556.00;;;;5034780;28;20041;-70
2022/04/29 07:44:54;;;;;;;7.93;3.00;;;19.20;43.20;18.30;102557.00;;;;5029880;28;20076;-70
2022/04/29 07:47:40;;;;;;;9.77;2.33;;;19.20;43.20;18.30;102550.00;;;;5033804;28;20283;-70
2022/04/29 07:50:29;;;;;;;8.63;2.50;;;19.20;43.20;18.30;102544.00;;;;5030492;28;20033;-69
2022/04/29 07:53:15;;;;;;;5.95;2.25;;;19.20;43.20;18.30;102543.00;;;;5033055;28;20044;-70
2022/04/29 07:56:02;;;;;;;10.02;2.08;;;19.20;43.20;18.30;102551.00;;;;5030846;28;20561;-70
2022/04/29 07:58:48;;;;;;;5.40;1.92;;;19.20;43.20;18.30;102549.00;;;;5034477;28;20114;-70
2022/04/29 08:01:38;;;;;;;6.78;2.60;;;19.20;43.20;18.30;102552.00;;;;5019638;28;20088;-70
2022/04/29 08:04:24;;;;;;;5.22;2.03;;;19.30;43.20;18.40;102553.00;;;;5035706;28;20045;-70
2022/04/29 08:07:13;;;;;;;3.53;1.65;;;19.20;43.20;18.40;102550.00;;;;5029572;28;20048;-69
2022/04/29 08:09:59;;;;;;;6.93;2.22;;;19.40;43.20;18.40;102543.00;;;;5031199;28;20064;-69
2022/04/29 08:12:45;;;;;;;3.08;1.92;;;19.30;43.20;18.40;102550.00;;;;5006949;28;20041;-70
2022/04/29 08:15:32;;;;;;;4.75;2.13;;;19.30;43.10;18.40;102539.00;;;;5042062;28;20028;-70
2022/04/29 08:18:19;;;;;;;5.15;2.13;;;19.30;43.10;18.40;102535.00;;;;5030904;28;20358;-70
2022/04/29 08:21:05;;;;;;;4.60;2.00;;;19.30;43.10;18.40;102536.00;;;;5015671;28;20099;-69
2022/04/29 08:23:51;;;;;;;4.82;2.10;;;19.30;43.10;18.40;102530.00;;;;5028167;28;20060;-70
2022/04/29 08:26:37;;;;;;;4.38;1.98;;;19.40;43.10;18.40;102526.00;;;;5027436;28;20479;-69
2022/04/29 08:29:23;;;;;;;3.78;2.00;;;19.40;43.10;18.40;102529.00;;;;5027173;28;20112;-69
2022/04/29 08:32:09;;;;;;;4.38;1.58;;;19.40;43.10;18.50;102530.00;;;;5031650;28;20462;-70
2022/04/29 08:34:55;;;;;;;3.88;1.80;;;19.40;43.10;18.50;102537.00;;;;5035365;28;20467;-70
2022/04/29 08:37:42;;;;;;;4.57;2.25;;;19.40;43.00;18.50;102543.00;;;;5029584;28;20041;-70
2022/04/29 08:40:28;;;;;;;4.50;1.90;;;19.40;43.00;18.50;102541.00;;;;5038909;28;20147;-70
2022/04/29 08:43:15;;;;;;;4.47;2.35;;;19.40;42.90;18.50;102533.00;;;;5030008;28;20045;-70
2022/04/29 08:46:01;;;;;;;4.97;1.90;;;19.40;42.90;18.50;102538.00;;;;5018916;28;20303;-70
2022/04/29 08:48:49;;;;;;;5.70;2.67;;;19.40;42.90;18.50;102534.00;;;;5031758;28;20029;-70
2022/04/29 08:51:35;;;;;;;4.93;2.10;;;19.40;42.90;18.50;102535.00;;;;5016082;28;20049;-70
2022/04/29 09:00:30;;;;;;;4.68;2.00;;;19.40;42.90;18.50;102532.00;;;;5020539;28;20101;-70
2022/04/29 09:03:22;;;;;;;3.80;1.98;;;19.40;42.90;18.50;102527.00;;;;5019977;28;20406;-70
2022/04/29 09:06:08;;;;;;;3.90;2.00;;;19.40;42.90;18.50;102526.00;;;;5040477;28;20032;-69
2022/04/29 09:09:00;;;;;;;5.72;1.92;;;19.50;42.90;18.50;102533.00;;;;5040940;28;20489;-70
2022/04/29 09:11:47;;;;;;;3.58;1.73;;;19.50;42.90;18.50;102531.00;;;;5000019;28;20086;-70
2022/04/29 09:14:33;;;;;;;5.10;1.85;;;19.40;42.80;18.50;102534.00;;;;5033466;28;20037;-70
2022/04/29 09:17:27;;;;;;;4.05;1.83;;;19.40;42.80;18.50;102539.00;;;;5032272;28;20042;-70
2022/04/29 09:20:22;;;;;;;3.70;1.80;;;19.40;42.80;18.50;102540.00;;;;5021199;28;20040;-70
2022/04/29 09:23:10;;;;;;;4.72;1.73;;;19.40;42.80;18.50;102539.00;;;;5043115;28;20095;-70
2022/04/29 09:25:58;;;;;;;4.32;1.70;;;19.50;42.80;18.50;102540.00;;;;5031695;28;20474;-70
2022/04/29 09:28:45;;;;;;;4.05;1.60;;;19.50;42.80;18.50;102540.00;;;;5037921;28;20067;-70
2022/04/29 09:31:52;;;;;;;5.43;1.45;;;19.50;42.70;18.50;102536.00;;;;5011063;28;20033;-70
2022/04/29 09:34:54;;;;;;;2.70;1.67;;;19.50;42.80;18.50;102533.00;;;;5022285;28;20041;-69
2022/04/29 09:39:26;;;;;;;4.88;1.85;;;19.40;42.70;18.50;102540.00;;;;5010833;28;20056;-70
2022/04/29 09:40:46;;;;;;;2.80;1.52;;;19.40;42.60;18.50;102534.00;;;;5033898;28;20155;-69
2022/04/29 09:43:42;;;;;;;2.75;1.65;;;19.50;42.70;18.50;102531.00;;;;5020817;28;20048;-70
2022/04/29 09:46:28;;;;;;;5.07;1.92;;;19.40;42.60;18.50;102534.00;;;;5022211;28;20097;-70
2022/04/29 09:49:16;;;;;;;5.30;2.05;;;19.50;42.70;18.50;102530.00;;;;5022418;28;20041;-70
2022/04/29 09:52:03;;;;;;;4.30;1.90;;;19.50;42.70;18.50;102536.00;;;;5009966;28;20588;-70
2022/04/29 09:54:50;;;;;;;3.30;1.90;;;19.50;42.60;18.50;102537.00;;;;5019558;28;20030;-70
2022/04/29 09:57:36;;;;;;;2.95;1.60;;;19.50;42.70;18.50;102533.00;;;;5038459;28;20036;-69
2022/04/29 10:00:23;;;;;;;4.53;2.25;;;19.50;42.60;18.50;102533.00;;;;5007043;28;20041;-70
2022/04/29 10:03:10;;;;;;;3.40;1.73;;;19.50;42.70;18.50;102532.00;;;;5035449;28;20049;-69
2022/04/29 10:05:57;;;;;;;3.80;2.00;;;19.50;42.70;18.50;102535.00;;;;5008151;28;20041;-69
2022/04/29 10:08:43;;;;;;;4.25;1.80;;;19.40;42.60;18.50;102536.00;;;;5033867;28;20048;-70
2022/04/29 10:11:30;;;;;;;4.30;2.30;;;19.50;42.60;18.50;102534.00;;;;5007867;28;20048;-70
2022/04/29 10:14:16;;;;;;;2.83;1.80;;;19.60;42.70;18.60;102530.00;;;;5012852;28;20069;-70
2022/04/29 10:23:15;;;;;;;4.40;2.92;;;19.50;42.60;18.60;102531.00;;;;5023552;28;20049;-70
2022/04/29 10:26:01;;;;;;;6.78;2.35;;;19.50;42.60;18.60;102520.00;;;;5034976;28;20039;-70
2022/04/29 10:28:48;;;;;;;5.38;2.85;;;19.50;42.60;18.60;102521.00;;;;5017611;28;20112;-70
2022/04/29 10:31:34;;;;;;;6.47;3.53;;;19.60;42.60;18.60;102526.00;;;;5010469;28;20052;-69
2022/04/29 10:34:28;;;;;;;5.75;3.90;;;19.50;42.60;18.60;102526.00;;;;5041275;28;20820;-70
2022/04/29 10:37:14;;;;;;;5.28;3.90;;;19.60;42.60;18.60;102519.00;;;;5036190;28;20383;-69
2022/04/29 10:40:11;;;;;;;7.30;3.97;;;19.60;42.60;18.60;102522.00;;;;5004547;28;20033;-70
2022/04/29 10:43:08;;;;;;;7.15;4.05;;;19.50;42.60;18.60;102523.00;;;;5017991;28;20037;-69
2022/04/29 10:46:06;;;;;;;6.63;4.53;;;19.60;42.60;18.60;102520.00;;;;5030791;28;20059;-70
2022/04/29 10:48:53;;;;;;;5.47;4.10;;;19.60;42.50;18.60;102517.00;;;;5032603;28;20048;-69
2022/04/29 10:51:48;;;;;;;6.27;4.50;;;19.60;42.50;18.60;102519.00;;;;5016379;28;20049;-70
2022/04/29 10:54:34;;;;;;;5.85;4.90;;;19.60;42.50;18.60;102515.00;;;;5033856;28;20039;-70
2022/04/29 10:57:21;;;;;;;4.93;4.32;;;19.60;42.50;18.60;102513.00;;;;5032841;28;20798;-69
2022/04/29 11:00:11;;;;;;;4.90;4.40;;;19.60;42.40;18.60;102505.00;;;;5001303;28;20033;-68
2022/04/29 11:03:38;;;;;;;10.05;4.55;;;19.60;42.40;18.60;102508.00;;;;5026998;28;20045;-69
2022/04/29 11:06:45;;;;;;;4.78;4.28;;;19.60;42.50;18.60;102511.00;;;;5038945;28;20577;-70
2022/04/29 11:09:46;;;;;;;5.20;4.47;;;19.60;42.40;18.60;102499.00;;;;5022490;28;20045;-70
2022/04/29 11:12:34;;;;;;;5.57;4.72;;;19.60;42.40;18.60;102501.00;;;;5036016;28;20052;-69
2022/04/29 11:15:23;;;;;;;5.70;4.05;;;19.60;42.30;18.60;102492.00;;;;5038056;28;20148;-70
2022/04/29 11:18:18;;;;;;;4.15;3.75;;;19.60;42.30;18.60;102490.00;;;;5025485;28;20091;-69
2022/04/29 11:24:40;;;;;;;4.57;3.55;;;19.60;42.30;18.60;102494.00;;;;5020502;28;20402;-70
2022/04/29 11:27:37;;;;;;;6.70;3.88;;;19.60;42.20;18.60;102483.00;;;;5029625;28;20128;-70
2022/04/29 11:30:23;;;;;;;5.53;4.30;;;19.70;42.60;18.60;102484.00;;;;5041257;28;20037;-70
2022/04/29 11:33:09;;;;;;;5.13;3.60;;;19.70;42.20;18.60;102482.00;;;;5045302;28;20271;-70
2022/04/29 11:36:12;;;;;;;4.85;3.28;;;19.70;42.10;18.60;102486.00;;;;5039456;28;20046;-69
2022/04/29 11:38:58;;;;;;;3.03;2.72;;;19.70;42.20;18.70;102484.00;;;;5022767;28;20517;-70
2022/04/29 11:41:58;;;;;;;7.05;3.65;;;19.70;42.10;18.70;102483.00;;;;5033137;28;20051;-70
2022/04/29 11:44:45;;;;;;;5.22;3.00;;;19.70;42.60;18.70;102480.00;;;;5029955;28;20418;-70
2022/04/29 11:47:32;;;;;;;4.07;2.95;;;19.60;42.00;18.70;102474.00;;;;5029607;28;20049;-70
2022/04/29 11:50:31;;;;;;;5.53;3.45;;;19.70;42.10;18.70;102472.00;;;;5021730;28;20037;-70
2022/04/29 11:53:17;;;;;;;3.97;3.08;;;19.70;42.10;18.70;102478.00;;;;5033384;28;20076;-70
2022/04/29 11:56:04;;;;;;;4.75;2.83;;;19.70;42.00;18.70;102475.00;;;;5031671;28;20523;-70
2022/04/29 11:58:53;;;;;;;4.97;2.90;;;19.70;42.00;18.70;102488.00;;;;5035796;28;20041;-70
2022/04/29 12:01:39;;;;;;;3.55;2.47;;;19.70;42.00;18.70;102479.00;;;;5018043;28;20043;-70
2022/04/29 12:04:26;;;;;;;5.47;3.22;;;19.70;42.00;18.70;102463.00;;;;5022497;28;20131;-69
2022/04/29 12:07:12;;;;;;;3.88;2.67;;;19.70;42.00;18.70;102461.00;;;;5034621;28;20514;-70
2022/04/29 12:09:59;;;;;;;4.05;2.70;;;19.70;41.90;18.70;102462.00;;;;5034924;28;20045;-70
2022/04/29 12:12:48;;;;;;;4.65;2.53;;;19.70;41.90;18.70;102451.00;;;;5029787;28;20052;-70
2022/04/29 12:15:43;;;;;;;3.45;2.70;;;19.70;41.90;18.70;102442.00;;;;5032387;28;20119;-70
2022/04/29 12:18:49;;;;;;;4.13;2.58;;;19.70;41.90;18.70;102450.00;;;;5008023;28;20040;-70
2022/04/29 12:21:36;;;;;;;3.22;2.72;;;19.70;41.90;18.70;102445.00;;;;5034770;28;20045;-70
2022/04/29 12:24:23;;;;;;;3.42;2.88;;;19.80;41.90;18.70;102448.00;;;;5034939;28;20057;-70
2022/04/29 12:27:09;;;;;;;3.65;2.40;;;19.80;41.90;18.70;102441.00;;;;5011966;28;20490;-70
2022/04/29 12:36:15;;;;;;;6.47;3.10;;;19.80;41.90;18.80;102437.00;;;;5033047;28;20087;-70
2022/04/29 12:39:05;;;;;;;3.85;3.35;;;19.80;41.90;18.80;102436.00;;;;5022129;28;20038;-69
2022/04/29 12:42:08;;;;;;;5.18;3.25;;;19.80;41.90;18.80;102435.00;;;;5010955;28;20437;-70
2022/04/29 12:48:06;;;;;;;7.53;3.25;;;19.80;41.80;18.80;102413.00;;;;5040455;28;20475;-70
2022/04/29 12:50:52;;;;;;;7.60;3.03;;;19.80;41.70;18.80;102425.00;;;;5037694;28;20409;-70
2022/04/29 12:53:39;;;;;;;5.07;3.22;;;19.90;41.80;18.80;102419.00;;;;5028120;28;20039;-70
2022/04/29 12:56:35;;;;;;;3.85;3.15;;;19.90;41.80;18.80;102414.00;;;;5036534;28;20036;-70